createdAt,value
2017-11-03T00:02:09.388Z,23.90
2017-11-03T00:04:38.235Z,22.92
2017-11-03T00:07:07.087Z,25.30
2017-11-03T00:09:36.698Z,28.50
2017-11-03T00:12:06.316Z,24.45
2017-11-03T00:14:35.166Z,25.35
2017-11-03T00:17:04.014Z,26.48
2017-11-03T00:19:32.868Z,26.20
2017-11-03T00:22:01.712Z,26.40
2017-11-03T00:24:29.899Z,25.95
2017-11-03T00:26:59.519Z,25.05
2017-11-03T00:29:28.378Z,25.85
2017-11-03T00:31:57.227Z,26.83
2017-11-03T00:34:26.106Z,26.00
2017-11-03T00:36:54.950Z,27.52
2017-11-03T00:39:23.831Z,25.30
2017-11-03T00:41:52.668Z,25.20
2017-11-03T00:44:21.192Z,26.20
2017-11-03T00:46:50.800Z,26.25
2017-11-03T00:49:20.429Z,23.52
2017-11-03T00:51:49.289Z,25.90
2017-11-03T00:54:18.911Z,26.05
2017-11-03T00:56:48.562Z,24.40
2017-11-03T00:59:17.440Z,24.30
2017-11-03T01:01:46.291Z,25.10
2017-11-03T01:04:15.927Z,26.77
2017-11-03T01:06:44.772Z,26.77
2017-11-03T01:09:13.602Z,26.70
2017-11-03T01:11:42.468Z,29.37
2017-11-03T01:14:11.324Z,26.73
2017-11-03T01:16:40.170Z,26.52
2017-11-03T01:19:09.022Z,28.15
2017-11-03T01:21:37.875Z,26.62
2017-11-03T01:24:06.728Z,27.98
2017-11-03T01:26:36.329Z,27.98
2017-11-03T01:29:05.961Z,27.08
2017-11-03T01:31:34.818Z,24.80
2017-11-03T01:34:03.668Z,29.00
2017-11-03T01:36:32.518Z,26.40
2017-11-03T01:39:01.799Z,26.08
2017-11-03T01:41:30.656Z,25.48
2017-11-03T01:43:59.501Z,26.70
2017-11-03T01:46:29.131Z,27.85
2017-11-03T01:48:57.971Z,26.00
2017-11-03T01:51:26.821Z,25.45
2017-11-03T01:53:55.666Z,26.92
2017-11-03T01:56:24.522Z,26.73
2017-11-03T01:58:53.415Z,26.15
2017-11-03T02:01:22.278Z,26.08
2017-11-03T02:03:51.172Z,25.88
2017-11-03T02:06:20.046Z,28.38
2017-11-03T02:08:49.674Z,27.98
2017-11-03T02:11:18.542Z,28.58
2017-11-03T02:13:48.169Z,28.15
2017-11-03T02:16:17.023Z,29.52
2017-11-03T02:18:45.883Z,27.67
2017-11-03T02:21:14.096Z,29.92
2017-11-03T02:23:43.399Z,27.65
2017-11-03T02:26:13.014Z,29.10
2017-11-03T02:28:42.626Z,27.23
2017-11-03T02:31:12.246Z,31.02
2017-11-03T02:33:41.898Z,27.92
2017-11-03T02:36:10.769Z,29.63
2017-11-03T02:38:39.628Z,27.42
2017-11-03T02:41:09.132Z,30.48
2017-11-03T02:43:38.781Z,31.67
2017-11-03T02:46:07.650Z,30.62
2017-11-03T02:48:36.518Z,31.95
2017-11-03T02:51:06.150Z,31.52
2017-11-03T02:53:35.013Z,33.58
2017-11-03T02:56:03.863Z,35.63
2017-11-03T02:58:32.754Z,34.60
2017-11-03T03:01:01.615Z,34.47
2017-11-03T03:03:30.503Z,35.35
2017-11-03T03:05:59.358Z,32.05
2017-11-03T03:08:28.199Z,36.45
2017-11-03T03:10:57.051Z,32.95
2017-11-03T03:13:25.898Z,34.47
2017-11-03T03:15:54.778Z,34.03
2017-11-03T03:18:23.653Z,34.40
2017-11-03T03:20:52.525Z,31.35
2017-11-03T03:23:22.159Z,33.20
2017-11-03T03:25:50.675Z,34.13
2017-11-03T03:28:19.527Z,34.70
2017-11-03T03:30:48.377Z,33.55
2017-11-03T03:33:16.945Z,35.40
2017-11-03T03:35:45.482Z,32.97
2017-11-03T03:38:14.335Z,31.42
2017-11-03T03:40:43.181Z,30.35
2017-11-03T03:43:12.039Z,32.45
2017-11-03T03:45:40.982Z,33.30
2017-11-03T03:48:09.166Z,31.00
2017-11-03T03:50:38.792Z,31.98
2017-11-03T03:53:07.638Z,31.70
2017-11-03T03:55:36.506Z,34.10
2017-11-03T03:58:07.230Z,31.50
2017-11-03T04:00:36.853Z,32.35
2017-11-03T04:03:05.419Z,33.75
2017-11-03T04:05:35.054Z,33.78
2017-11-03T04:08:03.912Z,31.87
2017-11-03T04:10:32.443Z,30.85
2017-11-03T04:13:01.304Z,34.30
2017-11-03T04:15:30.915Z,32.28
2017-11-03T04:17:59.759Z,33.45
2017-11-03T04:20:28.619Z,32.30
2017-11-03T04:22:57.482Z,32.35
2017-11-03T04:25:25.689Z,30.65
2017-11-03T04:27:54.548Z,33.42
2017-11-03T04:30:24.177Z,30.52
2017-11-03T04:32:53.049Z,30.60
2017-11-03T04:35:22.721Z,32.53
2017-11-03T04:37:51.587Z,32.53
2017-11-03T04:40:20.158Z,29.45
2017-11-03T04:42:49.504Z,31.20
2017-11-03T04:45:18.357Z,29.52
2017-11-03T04:47:47.240Z,32.70
2017-11-03T04:50:16.132Z,30.70
2017-11-03T04:52:45.009Z,29.20
2017-11-03T04:55:13.215Z,30.48
2017-11-03T04:57:42.091Z,28.30
2017-11-03T05:00:10.948Z,28.92
2017-11-03T05:02:40.571Z,31.65
2017-11-03T05:05:10.218Z,31.33
2017-11-03T05:07:38.779Z,31.50
2017-11-03T05:10:07.644Z,31.35
2017-11-03T05:12:37.263Z,30.60
2017-11-03T05:15:06.887Z,30.42
2017-11-03T05:17:35.743Z,31.98
2017-11-03T05:20:04.273Z,31.17
2017-11-03T05:22:33.152Z,32.60
2017-11-03T05:25:02.019Z,31.40
2017-11-03T05:27:31.635Z,31.65
2017-11-03T05:30:01.263Z,32.25
2017-11-03T05:32:30.113Z,29.10
2017-11-03T05:34:58.976Z,32.05
2017-11-03T05:37:27.414Z,33.17
2017-11-03T05:39:58.038Z,33.00
2017-11-03T05:42:29.196Z,29.50
2017-11-03T05:44:59.545Z,32.88
2017-11-03T05:47:28.772Z,30.17
2017-11-03T05:49:57.607Z,31.67
2017-11-03T05:52:27.220Z,32.20
2017-11-03T05:54:56.100Z,33.33
2017-11-03T05:57:25.716Z,33.33
2017-11-03T05:59:54.572Z,28.80
2017-11-03T06:02:23.251Z,32.10
2017-11-03T06:04:52.105Z,31.70
2017-11-03T06:07:20.958Z,30.75
2017-11-03T06:09:50.583Z,34.00
2017-11-03T06:12:20.042Z,35.03
2017-11-03T06:14:48.913Z,31.77
2017-11-03T06:17:17.784Z,31.42
2017-11-03T06:19:46.657Z,33.88
2017-11-03T06:22:15.507Z,32.63
2017-11-03T06:24:44.355Z,34.63
2017-11-03T06:27:13.219Z,31.85
2017-11-03T06:29:42.847Z,31.85
2017-11-03T06:32:11.714Z,33.80
2017-11-03T06:34:40.573Z,32.35
2017-11-03T06:37:09.441Z,33.20
2017-11-03T06:39:38.295Z,31.00
2017-11-03T06:42:07.936Z,32.97
2017-11-03T06:44:36.807Z,30.33
2017-11-03T06:47:05.344Z,30.05
2017-11-03T06:49:34.195Z,30.98
2017-11-03T06:52:03.068Z,30.12
2017-11-03T06:54:32.687Z,30.67
2017-11-03T06:57:01.562Z,30.60
2017-11-03T06:59:30.456Z,30.15
2017-11-03T07:02:00.186Z,27.98
2017-11-03T07:04:28.699Z,29.17
2017-11-03T07:06:57.559Z,26.55
2017-11-03T07:09:26.419Z,26.25
2017-11-03T07:11:56.061Z,29.45
2017-11-03T07:14:24.927Z,30.95
2017-11-03T07:16:54.539Z,29.77
2017-11-03T07:19:24.163Z,27.73
2017-11-03T07:21:53.017Z,27.77
2017-11-03T07:24:21.863Z,26.52
2017-11-03T07:26:50.763Z,28.55
2017-11-03T07:29:19.619Z,29.15
2017-11-03T07:31:49.230Z,29.65
2017-11-03T07:34:18.852Z,31.23
2017-11-03T09:10:46.097Z,22.95
2017-11-03T09:13:14.946Z,23.20
2017-11-03T09:15:44.595Z,24.15
2017-11-03T09:18:13.439Z,26.05
2017-11-03T09:20:43.573Z,22.65
2017-11-03T09:23:11.763Z,23.87
2017-11-03T09:25:39.963Z,25.15
2017-11-03T09:28:10.746Z,23.00
2017-11-03T09:30:39.611Z,24.92
2017-11-03T09:33:08.489Z,24.40
2017-11-03T09:35:37.749Z,21.02
2017-11-03T09:38:06.603Z,23.45
2017-11-03T09:40:35.481Z,21.90
2017-11-03T09:43:04.843Z,23.23
2017-11-03T09:45:33.707Z,21.20
2017-11-03T09:48:03.379Z,20.15
2017-11-03T09:50:32.236Z,20.83
2017-11-03T09:53:01.105Z,19.80
2017-11-03T09:55:30.720Z,19.27
2017-11-03T09:57:59.623Z,21.30
2017-11-03T10:00:28.515Z,19.08
2017-11-03T10:02:57.753Z,18.77
2017-11-03T10:05:26.595Z,17.52
2017-11-03T10:07:55.497Z,20.45
2017-11-03T10:10:24.047Z,17.27
2017-11-03T10:12:52.725Z,15.70
2017-11-03T10:15:22.586Z,17.67
2017-11-03T10:17:51.458Z,17.75
2017-11-03T10:20:20.333Z,15.55
2017-11-03T10:22:49.951Z,15.48
2017-11-03T10:25:19.416Z,13.57
2017-11-03T10:27:48.290Z,15.18
2017-11-03T10:30:17.156Z,13.18
2017-11-03T10:32:46.025Z,12.85
2017-11-03T10:35:15.746Z,12.43
2017-11-03T10:37:44.599Z,12.48
2017-11-03T10:40:13.194Z,11.70
2017-11-03T10:42:42.076Z,11.75
2017-11-03T10:45:10.280Z,9.68
2017-11-03T10:47:39.913Z,11.90
2017-11-03T10:50:08.130Z,8.60
2017-11-03T10:52:36.669Z,10.32
2017-11-03T10:55:05.534Z,10.85
2017-11-03T10:57:35.168Z,10.45
2017-11-03T11:00:03.687Z,7.72
2017-11-03T11:02:31.889Z,9.18
2017-11-03T11:05:00.735Z,8.98
2017-11-03T11:07:29.590Z,10.27
2017-11-03T11:09:59.223Z,10.35
2017-11-03T11:12:28.134Z,11.55
2017-11-03T11:14:57.048Z,10.65
2017-11-03T11:17:25.892Z,9.32
2017-11-03T11:19:54.727Z,9.15
2017-11-03T11:22:23.677Z,8.48
2017-11-03T11:24:52.526Z,9.07
2017-11-03T11:27:22.018Z,9.70
2017-11-03T11:29:50.572Z,8.90
2017-11-03T11:32:19.551Z,9.80
2017-11-03T11:34:48.403Z,9.05
2017-11-03T11:37:16.922Z,9.60
2017-11-03T11:39:45.815Z,9.50
2017-11-03T11:42:14.354Z,10.20
2017-11-03T11:44:42.369Z,8.80
2017-11-03T11:47:10.558Z,9.32
2017-11-03T11:49:38.731Z,8.35
2017-11-03T11:52:07.591Z,8.35
2017-11-03T11:54:36.583Z,8.40
2017-11-03T11:57:05.880Z,9.63
2017-11-03T11:59:34.903Z,9.50
2017-11-03T12:02:03.091Z,9.32
2017-11-03T12:04:31.285Z,10.70
2017-11-03T12:07:00.731Z,9.20
2017-11-03T12:09:30.383Z,10.00
2017-11-03T12:11:58.925Z,10.52
2017-11-03T12:14:28.626Z,11.07
2017-11-03T12:16:57.187Z,10.27
2017-11-03T12:19:26.068Z,10.35
2017-11-03T12:21:54.598Z,9.38
2017-11-03T12:24:23.562Z,10.95
2017-11-03T12:26:51.771Z,10.90
2017-11-03T12:29:21.407Z,10.43
2017-11-03T12:31:50.263Z,10.70
2017-11-03T12:34:19.911Z,10.75
2017-11-03T12:36:48.794Z,9.63
2017-11-03T12:39:17.003Z,10.23
2017-11-03T12:41:45.198Z,10.68
2017-11-03T12:44:13.399Z,11.20
2017-11-03T12:46:42.699Z,11.65
2017-11-03T12:49:11.666Z,11.15
2017-11-03T12:51:40.247Z,11.90
2017-11-03T12:54:08.460Z,12.13
2017-11-03T12:56:36.654Z,10.85
2017-11-03T12:59:05.610Z,10.98
2017-11-03T13:01:34.575Z,11.30
2017-11-03T13:04:02.763Z,11.50
2017-11-03T13:06:30.966Z,11.50
2017-11-03T13:08:59.937Z,11.60
2017-11-03T13:11:28.850Z,13.18
2017-11-03T13:13:58.165Z,11.30
2017-11-03T13:16:26.364Z,12.50
2017-11-03T13:18:54.562Z,11.52
2017-11-03T13:21:22.765Z,12.23
2017-11-03T13:23:50.954Z,10.63
2017-11-03T13:26:20.086Z,12.48
2017-11-03T13:28:48.480Z,12.37
2017-11-03T13:31:16.675Z,12.55
2017-11-03T13:33:44.867Z,11.43
2017-11-03T13:36:13.101Z,11.73
2017-11-03T13:38:41.642Z,11.68
2017-11-03T13:41:11.282Z,12.82
2017-11-03T13:43:39.467Z,12.27
2017-11-03T13:46:07.995Z,11.18
2017-11-03T13:48:37.303Z,12.43
2017-11-03T13:51:06.270Z,12.95
2017-11-03T13:53:35.148Z,11.73
2017-11-03T13:56:03.327Z,11.07
2017-11-03T13:58:31.514Z,11.00
2017-11-03T14:01:00.375Z,10.82
2017-11-03T14:03:29.232Z,12.15
2017-11-03T14:05:58.691Z,12.88
2017-11-03T14:08:27.574Z,12.55
2017-11-03T14:10:56.505Z,12.68
2017-11-03T14:13:27.081Z,11.32
2017-11-03T14:15:55.947Z,11.23
2017-11-03T14:18:24.803Z,11.12
2017-11-03T14:20:53.660Z,12.07
2017-11-03T14:23:22.551Z,11.18
2017-11-03T14:25:51.406Z,12.10
2017-11-03T14:28:21.042Z,11.88
2017-11-03T14:30:49.912Z,12.68
2017-11-03T14:33:18.771Z,11.45
2017-11-03T14:35:47.640Z,10.90
2017-11-03T14:38:16.501Z,12.00
2017-11-03T14:40:45.390Z,12.82
2017-11-03T14:43:14.242Z,11.63
2017-11-03T14:45:43.109Z,12.07
2017-11-03T14:48:11.962Z,13.98
2017-11-03T14:50:40.823Z,13.43
2017-11-03T14:53:10.460Z,13.07
2017-11-03T14:55:39.318Z,12.00
2017-11-03T14:58:08.180Z,12.15
2017-11-03T15:00:37.041Z,13.23
2017-11-03T15:03:05.571Z,12.43
2017-11-03T15:05:34.419Z,13.40
2017-11-03T15:08:03.273Z,13.52
2017-11-03T15:10:32.886Z,12.57
2017-11-03T15:13:02.503Z,14.25
2017-11-03T15:15:32.117Z,13.15
2017-11-03T15:18:01.723Z,12.57
2017-11-03T15:20:30.618Z,13.23
2017-11-03T15:22:59.850Z,14.50
2017-11-03T15:25:28.761Z,13.38
2017-11-03T15:27:57.666Z,13.75
2017-11-03T15:30:26.530Z,15.15
2017-11-03T15:32:55.392Z,15.43
2017-11-03T15:35:24.244Z,17.10
2017-11-03T15:37:53.103Z,14.65
2017-11-03T15:40:21.639Z,13.95
2017-11-03T15:42:51.262Z,14.43
2017-11-03T15:45:20.111Z,12.55
2017-11-03T15:47:48.966Z,13.80
2017-11-03T15:50:18.206Z,13.52
2017-11-03T15:52:47.075Z,13.35
2017-11-03T15:55:15.934Z,13.20
2017-11-03T15:57:44.459Z,13.57
2017-11-03T16:00:12.992Z,12.82
2017-11-03T16:02:41.885Z,13.10
2017-11-03T16:05:10.727Z,12.40
2017-11-03T16:07:39.595Z,13.23
2017-11-03T16:10:08.448Z,12.65
2017-11-03T16:12:37.293Z,12.70
2017-11-03T16:15:06.144Z,11.63
2017-11-03T16:17:34.999Z,12.77
2017-11-03T16:20:03.847Z,12.50
2017-11-03T16:22:32.716Z,12.05
2017-11-03T16:25:01.571Z,10.20
2017-11-03T16:27:31.191Z,11.12
2017-11-03T16:30:00.825Z,11.10
2017-11-03T16:32:29.684Z,11.82
2017-11-03T16:34:59.315Z,12.68
2017-11-03T16:37:28.918Z,13.27
2017-11-03T16:39:57.783Z,14.02
2017-11-03T16:42:26.631Z,12.23
2017-11-03T16:44:56.037Z,15.23
2017-11-03T16:47:24.925Z,14.27
2017-11-03T16:49:53.774Z,14.00
2017-11-03T16:52:23.405Z,16.20
2017-11-03T16:54:52.251Z,14.68
2017-11-03T16:57:20.783Z,15.52
2017-11-03T16:59:50.502Z,15.30
2017-11-03T17:02:19.559Z,15.65
2017-11-03T17:04:48.416Z,16.95
2017-11-03T17:07:17.276Z,15.25
2017-11-03T17:09:46.162Z,17.02
2017-11-03T17:12:15.024Z,17.23
2017-11-03T17:14:44.692Z,15.88
2017-11-03T17:17:13.376Z,16.98
2017-11-03T17:19:43.066Z,18.55
2017-11-03T17:22:11.919Z,17.73
2017-11-03T17:24:40.767Z,16.85
2017-11-03T17:27:09.631Z,18.33
2017-11-03T17:29:38.484Z,20.62
2017-11-03T17:32:07.330Z,20.30
2017-11-03T17:34:35.856Z,19.15
2017-11-03T17:37:04.704Z,18.30
2017-11-03T17:39:34.425Z,18.80
2017-11-03T17:42:03.281Z,18.52
2017-11-03T17:44:32.998Z,19.00
2017-11-03T17:47:01.858Z,18.25
2017-11-03T17:49:30.392Z,18.40
2017-11-03T17:51:59.244Z,17.17
2017-11-03T17:54:28.862Z,20.50
2017-11-03T17:56:58.480Z,18.23
2017-11-03T17:59:27.339Z,19.08
2017-11-03T18:01:56.968Z,19.73
2017-11-03T18:04:26.606Z,19.17
2017-11-03T18:06:55.686Z,19.50
2017-11-03T18:09:24.530Z,17.65
2017-11-03T18:11:53.214Z,19.77
2017-11-03T18:14:23.016Z,20.75
2017-11-03T18:16:57.950Z,18.37
2017-11-03T18:19:28.125Z,16.75
2017-11-03T18:21:58.985Z,17.25
2017-11-03T18:24:31.196Z,20.90
2017-11-03T18:27:00.052Z,15.95
2017-11-03T18:29:29.438Z,16.15
2017-11-03T18:31:58.210Z,17.65
2017-11-03T18:34:27.537Z,17.37
2017-11-03T18:36:57.286Z,16.95
2017-11-03T18:39:26.587Z,17.25
2017-11-03T18:41:57.989Z,15.95
2017-11-03T18:44:26.875Z,16.12
2017-11-03T18:46:55.459Z,17.20
2017-11-03T18:49:24.324Z,16.92
2017-11-03T18:51:54.211Z,17.33
2017-11-03T18:54:27.092Z,17.58
2017-11-03T18:56:56.067Z,16.55
2017-11-03T18:59:24.924Z,16.62
2017-11-03T19:04:41.534Z,17.65
2017-11-03T19:07:11.718Z,16.58
2017-11-03T19:09:41.600Z,16.45
2017-11-03T19:12:10.333Z,18.45
2017-11-03T19:14:38.531Z,17.08
2017-11-03T19:17:07.385Z,17.33
2017-11-03T19:19:36.276Z,18.25
2017-11-03T19:22:05.188Z,15.00
2017-11-03T19:24:34.811Z,17.60
2017-11-03T19:27:04.580Z,17.50
2017-11-03T19:29:33.264Z,17.85
2017-11-03T19:32:02.119Z,18.02
2017-11-03T19:34:31.727Z,17.25
2017-11-03T19:37:01.438Z,18.62
2017-11-03T19:39:31.060Z,17.83
2017-11-03T19:41:59.918Z,21.10
2017-11-03T19:44:28.784Z,19.80
2017-11-03T19:46:57.651Z,17.80
2017-11-03T19:49:26.338Z,18.40
2017-11-03T19:51:55.965Z,17.17
2017-11-03T19:54:25.815Z,18.23
2017-11-03T19:56:55.362Z,17.98
2017-11-03T20:01:59.510Z,17.83
2017-11-03T20:04:28.364Z,17.85
2017-11-03T20:06:57.995Z,17.42
2017-11-03T20:09:40.317Z,18.65
2017-11-03T20:12:23.017Z,18.52
2017-11-03T20:15:05.731Z,17.20
2017-11-03T20:17:46.879Z,65.80
2017-11-03T20:20:27.566Z,19.87
2017-11-03T20:23:12.648Z,19.08
2017-11-03T20:25:49.050Z,17.65
2017-11-03T20:28:17.913Z,18.73
2017-11-03T20:30:47.020Z,18.17
2017-11-03T20:33:15.949Z,17.90
2017-11-03T20:35:47.972Z,16.50
2017-11-03T20:38:18.124Z,18.73
2017-11-03T20:40:50.351Z,18.80
2017-11-03T20:43:24.092Z,16.75
2017-11-03T20:45:55.607Z,17.33
2017-11-03T20:48:24.485Z,18.02
2017-11-03T20:50:57.933Z,18.25
2017-11-03T21:01:09.239Z,19.10
2017-11-03T21:03:38.140Z,18.45
2017-11-03T21:06:08.752Z,18.30
2017-11-03T21:08:37.422Z,19.33
2017-11-03T21:11:07.686Z,19.33
2017-11-03T21:13:36.646Z,19.33
2017-11-03T21:16:06.105Z,18.98
2017-11-03T21:18:35.039Z,18.70
2017-11-03T21:21:04.783Z,20.20
2017-11-03T21:23:33.778Z,21.10
2017-11-03T21:26:05.181Z,20.25
2017-11-03T21:28:34.095Z,20.60
2017-11-03T21:31:03.810Z,18.37
2017-11-03T21:33:33.623Z,21.65
2017-11-03T21:36:02.509Z,22.02
2017-11-03T21:38:32.035Z,20.60
2017-11-03T21:41:01.653Z,20.40
2017-11-03T21:43:30.622Z,20.12
2017-11-03T21:45:59.768Z,19.85
2017-11-03T21:48:29.958Z,21.62
2017-11-03T21:50:58.817Z,22.15
2017-11-03T21:53:27.916Z,21.27
2017-11-03T21:55:57.994Z,22.20
2017-11-03T21:58:27.255Z,21.95
2017-11-03T22:00:56.158Z,21.20
2017-11-03T22:03:29.916Z,21.70
2017-11-03T22:05:59.116Z,22.40
2017-11-03T22:08:35.413Z,23.02
2017-11-03T22:11:04.664Z,25.15
2017-11-03T22:13:33.641Z,23.52
2017-11-03T22:16:02.656Z,19.45
2017-11-03T22:18:31.507Z,22.50
2017-11-03T22:21:00.358Z,21.27
2017-11-03T22:23:29.211Z,23.60
2017-11-03T22:25:58.069Z,22.20
2017-11-03T22:28:26.928Z,20.15
2017-11-03T22:30:56.547Z,20.92
2017-11-03T22:33:26.169Z,21.00
2017-11-03T22:35:56.126Z,21.80
2017-11-03T22:38:25.329Z,22.40
2017-11-03T22:40:54.182Z,23.10
2017-11-03T22:43:23.032Z,21.25
2017-11-03T22:45:51.880Z,21.50
2017-11-03T22:48:20.723Z,22.33
2017-11-03T22:50:49.570Z,23.12
2017-11-03T22:53:18.553Z,22.80
2017-11-03T22:55:47.405Z,21.87
2017-11-03T22:58:17.178Z,21.70
2017-11-03T23:00:46.033Z,22.45
2017-11-03T23:03:14.953Z,22.00
2017-11-03T23:05:43.836Z,22.70
2017-11-03T23:08:12.720Z,22.15
2017-11-03T23:10:41.600Z,21.08
2017-11-03T23:13:10.456Z,22.08
2017-11-03T23:15:39.363Z,22.80
2017-11-03T23:18:08.975Z,22.25
2017-11-03T23:20:38.600Z,22.90
2017-11-03T23:23:08.086Z,23.17
2017-11-03T23:25:37.710Z,22.00
2017-11-03T23:28:07.390Z,24.55
2017-11-03T23:30:36.235Z,22.35
2017-11-03T23:33:05.096Z,23.58
2017-11-03T23:35:34.720Z,23.42
2017-11-03T23:38:03.582Z,24.08
2017-11-03T23:40:32.254Z,23.58
2017-11-03T23:43:01.120Z,22.30
2017-11-03T23:45:29.983Z,23.30
2017-11-03T23:47:58.842Z,23.75
2017-11-03T23:50:27.695Z,23.95
2017-11-03T23:52:56.560Z,23.17
2017-11-03T23:55:25.413Z,23.17
2017-11-03T23:57:54.262Z,26.98
